XS23 weather

Priour Ranch Airport
Mountain Home, Texas, United States

Public forecast

Using degrees Fahrenheit for public forecast. Weather courtesy of forecast.io.

Closest aviation weather report (METAR) to Priour Ranch Airport

Closest report is Kerrville Municipal Louis Schreiner Field, 22.0 nm (40.7 km) ESE. Retrieved 2019/10/16 15:35 UTC (0 seconds ago):

KERV 161535Z AUTO 36014G20KT 10SM SCT049 18/06 A3017 RMK AO2 T01760057

Closest aviation forecast (TAF) to Priour Ranch Airport

Closest forecast is Kimble County Airport, 27.6 nm (51.2 km) NNW. Retrieved 2019/10/16 12:22 UTC (3 hours ago):

TAF KJCT 161120Z 1612/1712 36009KT P6SM OVC025 FM161500 04011KT P6SM SKC FM170000 VRB06KT P6SM SKC